sensor_id;sensor_type;location;lat;lon;timestamp;pressure;altitude;pressure_sealevel;temperature;humidity
74163;BME280;62515;52.758;5.076;2023-02-08T00:02:08;104091.94;;;-1.61;100.00
74163;BME280;62515;52.758;5.076;2023-02-08T00:04:34;104099.38;;;-1.46;100.00
74163;BME280;62515;52.758;5.076;2023-02-08T00:07:01;104085.91;;;-1.59;100.00
74163;BME280;62515;52.758;5.076;2023-02-08T00:09:28;104087.63;;;-1.59;100.00
74163;BME280;62515;52.758;5.076;2023-02-08T00:11:55;104085.00;;;-1.61;100.00
74163;BME280;62515;52.758;5.076;2023-02-08T00:14:23;104085.03;;;-1.59;100.00
74163;BME280;62515;52.758;5.076;2023-02-08T00:16:50;104085.75;;;-1.65;100.00
74163;BME280;62515;52.758;5.076;2023-02-08T00:19:17;104091.41;;;-1.78;100.00
74163;BME280;62515;52.758;5.076;2023-02-08T00:21:44;104081.50;;;-1.89;100.00
74163;BME280;62515;52.758;5.076;2023-02-08T00:24:10;104080.53;;;-1.91;100.00
74163;BME280;62515;52.758;5.076;2023-02-08T00:26:37;104082.03;;;-1.99;100.00
74163;BME280;62515;52.758;5.076;2023-02-08T00:29:04;104075.28;;;-1.93;100.00
74163;BME280;62515;52.758;5.076;2023-02-08T00:31:34;104076.75;;;-1.74;100.00
74163;BME280;62515;52.758;5.076;2023-02-08T00:34:02;104072.50;;;-1.71;100.00
74163;BME280;62515;52.758;5.076;2023-02-08T00:36:29;104073.16;;;-1.78;100.00
74163;BME280;62515;52.758;5.076;2023-02-08T00:38:56;104066.53;;;-1.67;100.00
74163;BME280;62515;52.758;5.076;2023-02-08T00:41:22;104069.09;;;-1.68;100.00
74163;BME280;62515;52.758;5.076;2023-02-08T00:43:50;104062.41;;;-1.59;100.00
74163;BME280;62515;52.758;5.076;2023-02-08T00:46:16;104062.47;;;-1.57;100.00
74163;BME280;62515;52.758;5.076;2023-02-08T00:48:45;104065.97;;;-1.56;100.00
74163;BME280;62515;52.758;5.076;2023-02-08T00:51:13;104068.69;;;-1.53;100.00
74163;BME280;62515;52.758;5.076;2023-02-08T00:53:42;104065.78;;;-1.63;100.00
74163;BME280;62515;52.758;5.076;2023-02-08T00:56:11;104077.53;;;-1.77;100.00
74163;BME280;62515;52.758;5.076;2023-02-08T00:58:39;104079.19;;;-1.79;100.00
74163;BME280;62515;52.758;5.076;2023-02-08T01:01:06;104082.41;;;-1.89;100.00
74163;BME280;62515;52.758;5.076;2023-02-08T01:03:34;104086.66;;;-1.91;100.00
74163;BME280;62515;52.758;5.076;2023-02-08T01:06:04;104085.94;;;-1.85;100.00
74163;BME280;62515;52.758;5.076;2023-02-08T01:08:31;104084.53;;;-1.76;100.00
74163;BME280;62515;52.758;5.076;2023-02-08T01:11:03;104075.56;;;-1.84;100.00
74163;BME280;62515;52.758;5.076;2023-02-08T01:13:30;104084.41;;;-1.79;100.00
74163;BME280;62515;52.758;5.076;2023-02-08T01:16:04;104071.38;;;-1.79;100.00
74163;BME280;62515;52.758;5.076;2023-02-08T01:18:31;104082.94;;;-1.71;100.00
74163;BME280;62515;52.758;5.076;2023-02-08T01:21:05;104073.41;;;-1.70;100.00
74163;BME280;62515;52.758;5.076;2023-02-08T01:23:32;104076.13;;;-1.66;100.00
74163;BME280;62515;52.758;5.076;2023-02-08T01:25:58;104074.56;;;-1.61;100.00
74163;BME280;62515;52.758;5.076;2023-02-08T01:28:25;104072.66;;;-1.66;100.00
74163;BME280;62515;52.758;5.076;2023-02-08T01:30:52;104075.66;;;-1.81;100.00
74163;BME280;62515;52.758;5.076;2023-02-08T01:33:19;104069.28;;;-1.90;100.00
74163;BME280;62515;52.758;5.076;2023-02-08T01:35:49;104073.59;;;-1.91;100.00
74163;BME280;62515;52.758;5.076;2023-02-08T01:38:17;104070.34;;;-1.84;100.00
74163;BME280;62515;52.758;5.076;2023-02-08T01:40:44;104072.78;;;-1.90;100.00
74163;BME280;62515;52.758;5.076;2023-02-08T01:43:19;104069.47;;;-1.84;100.00
74163;BME280;62515;52.758;5.076;2023-02-08T01:45:46;104071.94;;;-1.89;100.00
74163;BME280;62515;52.758;5.076;2023-02-08T01:48:17;104061.28;;;-1.95;100.00
74163;BME280;62515;52.758;5.076;2023-02-08T01:50:50;104065.59;;;-1.97;100.00
74163;BME280;62515;52.758;5.076;2023-02-08T01:53:20;104059.34;;;-2.02;100.00
74163;BME280;62515;52.758;5.076;2023-02-08T01:55:51;104063.59;;;-2.05;100.00
74163;BME280;62515;52.758;5.076;2023-02-08T01:58:20;104068.84;;;-2.04;100.00
74163;BME280;62515;52.758;5.076;2023-02-08T02:00:48;104060.19;;;-2.03;100.00
74163;BME280;62515;52.758;5.076;2023-02-08T02:03:16;104048.22;;;-1.96;100.00
74163;BME280;62515;52.758;5.076;2023-02-08T02:05:46;104054.31;;;-1.96;100.00
74163;BME280;62515;52.758;5.076;2023-02-08T02:08:15;104045.78;;;-1.90;100.00
74163;BME280;62515;52.758;5.076;2023-02-08T02:10:43;104048.47;;;-1.89;100.00
74163;BME280;62515;52.758;5.076;2023-02-08T02:13:12;104045.25;;;-1.79;100.00
74163;BME280;62515;52.758;5.076;2023-02-08T02:15:43;104042.72;;;-1.77;100.00
74163;BME280;62515;52.758;5.076;2023-02-08T02:18:12;104038.41;;;-1.75;100.00
74163;BME280;62515;52.758;5.076;2023-02-08T02:21:06;104044.06;;;-1.90;100.00
74163;BME280;62515;52.758;5.076;2023-02-08T02:29:55;104033.63;;;-1.90;100.00
74163;BME280;62515;52.758;5.076;2023-02-08T02:32:45;104032.44;;;-1.71;100.00
74163;BME280;62515;52.758;5.076;2023-02-08T02:35:21;104025.78;;;-1.62;100.00
74163;BME280;62515;52.758;5.076;2023-02-08T02:37:59;104030.78;;;-1.69;100.00
74163;BME280;62515;52.758;5.076;2023-02-08T02:40:40;104023.56;;;-1.78;100.00
74163;BME280;62515;52.758;5.076;2023-02-08T02:43:15;104025.25;;;-1.80;100.00
74163;BME280;62515;52.758;5.076;2023-02-08T02:45:48;104021.84;;;-1.77;100.00
74163;BME280;62515;52.758;5.076;2023-02-08T02:48:25;104018.59;;;-1.69;100.00
74163;BME280;62515;52.758;5.076;2023-02-08T02:50:57;104026.59;;;-1.63;100.00
74163;BME280;62515;52.758;5.076;2023-02-08T02:53:32;104022.97;;;-1.69;100.00
74163;BME280;62515;52.758;5.076;2023-02-08T02:56:02;104021.03;;;-1.75;100.00
74163;BME280;62515;52.758;5.076;2023-02-08T02:58:31;104024.84;;;-1.64;100.00
74163;BME280;62515;52.758;5.076;2023-02-08T03:00:59;104027.47;;;-1.64;100.00
74163;BME280;62515;52.758;5.076;2023-02-08T03:03:31;104024.72;;;-1.68;100.00
74163;BME280;62515;52.758;5.076;2023-02-08T03:06:01;104024.59;;;-1.73;100.00
74163;BME280;62515;52.758;5.076;2023-02-08T03:08:48;104017.50;;;-1.77;100.00
74163;BME280;62515;52.758;5.076;2023-02-08T03:11:21;104023.69;;;-1.73;100.00
74163;BME280;62515;52.758;5.076;2023-02-08T03:14:00;104028.22;;;-1.68;100.00
74163;BME280;62515;52.758;5.076;2023-02-08T03:16:31;104024.78;;;-1.65;100.00
74163;BME280;62515;52.758;5.076;2023-02-08T03:19:07;104030.09;;;-1.62;100.00
74163;BME280;62515;52.758;5.076;2023-02-08T03:21:40;104031.00;;;-1.62;100.00
74163;BME280;62515;52.758;5.076;2023-02-08T03:24:19;104034.34;;;-1.66;100.00
74163;BME280;62515;52.758;5.076;2023-02-08T03:26:53;104024.63;;;-1.71;100.00
74163;BME280;62515;52.758;5.076;2023-02-08T03:29:29;104024.72;;;-1.68;100.00
74163;BME280;62515;52.758;5.076;2023-02-08T03:32:06;104032.69;;;-1.64;100.00
74163;BME280;62515;52.758;5.076;2023-02-08T03:34:42;104022.41;;;-1.58;100.00
74163;BME280;62515;52.758;5.076;2023-02-08T03:37:14;104019.81;;;-1.58;100.00
74163;BME280;62515;52.758;5.076;2023-02-08T03:39:46;104030.25;;;-1.58;100.00
74163;BME280;62515;52.758;5.076;2023-02-08T03:42:16;104026.72;;;-1.60;100.00
74163;BME280;62515;52.758;5.076;2023-02-08T03:44:48;104026.81;;;-1.56;100.00
74163;BME280;62515;52.758;5.076;2023-02-08T03:47:19;104011.81;;;-1.64;100.00
74163;BME280;62515;52.758;5.076;2023-02-08T03:49:50;104020.72;;;-1.55;100.00
74163;BME280;62515;52.758;5.076;2023-02-08T03:52:18;104029.38;;;-1.58;100.00
74163;BME280;62515;52.758;5.076;2023-02-08T03:54:51;104025.94;;;-1.55;100.00
74163;BME280;62515;52.758;5.076;2023-02-08T03:57:22;104025.78;;;-1.62;100.00
74163;BME280;62515;52.758;5.076;2023-02-08T03:59:54;104028.34;;;-1.63;100.00
74163;BME280;62515;52.758;5.076;2023-02-08T04:02:24;104015.31;;;-1.62;100.00
74163;BME280;62515;52.758;5.076;2023-02-08T04:04:54;104030.16;;;-1.61;100.00
74163;BME280;62515;52.758;5.076;2023-02-08T04:07:22;104027.38;;;-1.67;100.00
74163;BME280;62515;52.758;5.076;2023-02-08T04:09:49;104019.53;;;-1.67;100.00
74163;BME280;62515;52.758;5.076;2023-02-08T04:12:16;104020.53;;;-1.63;100.00
74163;BME280;62515;52.758;5.076;2023-02-08T04:14:43;104026.34;;;-1.72;100.00
74163;BME280;62515;52.758;5.076;2023-02-08T04:17:09;104019.13;;;-1.80;100.00
74163;BME280;62515;52.758;5.076;2023-02-08T04:19:37;104017.06;;;-1.90;100.00
74163;BME280;62515;52.758;5.076;2023-02-08T04:22:05;104014.72;;;-1.83;100.00
74163;BME280;62515;52.758;5.076;2023-02-08T04:24:31;104019.84;;;-1.86;100.00
74163;BME280;62515;52.758;5.076;2023-02-08T04:26:58;104009.91;;;-1.97;100.00
74163;BME280;62515;52.758;5.076;2023-02-08T04:29:26;103998.47;;;-2.01;100.00
74163;BME280;62515;52.758;5.076;2023-02-08T04:31:53;104009.81;;;-2.00;100.00
74163;BME280;62515;52.758;5.076;2023-02-08T04:34:19;104015.91;;;-2.00;100.00
74163;BME280;62515;52.758;5.076;2023-02-08T04:36:46;104008.19;;;-1.97;100.00
74163;BME280;62515;52.758;5.076;2023-02-08T04:39:14;104011.63;;;-1.98;100.00
74163;BME280;62515;52.758;5.076;2023-02-08T04:41:41;104000.16;;;-2.03;100.00
74163;BME280;62515;52.758;5.076;2023-02-08T04:44:08;104004.34;;;-2.08;100.00
74163;BME280;62515;52.758;5.076;2023-02-08T04:46:35;104003.56;;;-2.05;100.00
74163;BME280;62515;52.758;5.076;2023-02-08T04:49:02;104001.63;;;-2.11;100.00
74163;BME280;62515;52.758;5.076;2023-02-08T04:51:28;104003.41;;;-2.10;100.00
74163;BME280;62515;52.758;5.076;2023-02-08T04:53:55;104013.03;;;-2.09;100.00
74163;BME280;62515;52.758;5.076;2023-02-08T04:56:23;104003.50;;;-2.07;100.00
74163;BME280;62515;52.758;5.076;2023-02-08T04:58:50;103994.88;;;-2.04;100.00
74163;BME280;62515;52.758;5.076;2023-02-08T05:01:17;103992.06;;;-2.12;100.00
74163;BME280;62515;52.758;5.076;2023-02-08T05:03:44;103997.41;;;-2.07;100.00
74163;BME280;62515;52.758;5.076;2023-02-08T05:06:10;103990.56;;;-2.04;100.00
74163;BME280;62515;52.758;5.076;2023-02-08T05:08:37;103988.09;;;-1.99;100.00
74163;BME280;62515;52.758;5.076;2023-02-08T05:11:04;103988.22;;;-1.95;100.00
74163;BME280;62515;52.758;5.076;2023-02-08T05:13:33;103982.34;;;-1.88;100.00
74163;BME280;62515;52.758;5.076;2023-02-08T05:16:00;103987.31;;;-1.97;100.00
74163;BME280;62515;52.758;5.076;2023-02-08T05:18:29;103981.25;;;-1.96;100.00
74163;BME280;62515;52.758;5.076;2023-02-08T05:20:58;103977.69;;;-1.98;100.00
74163;BME280;62515;52.758;5.076;2023-02-08T05:23:26;103982.72;;;-2.04;100.00
74163;BME280;62515;52.758;5.076;2023-02-08T05:25:53;103983.63;;;-2.03;100.00
74163;BME280;62515;52.758;5.076;2023-02-08T05:28:19;103977.59;;;-2.01;100.00
74163;BME280;62515;52.758;5.076;2023-02-08T05:30:48;103982.91;;;-1.98;100.00
74163;BME280;62515;52.758;5.076;2023-02-08T05:33:15;103984.50;;;-2.03;100.00
74163;BME280;62515;52.758;5.076;2023-02-08T05:35:43;103979.13;;;-2.09;100.00
74163;BME280;62515;52.758;5.076;2023-02-08T05:38:10;103976.88;;;-2.25;100.00
74163;BME280;62515;52.758;5.076;2023-02-08T05:40:37;103997.44;;;-2.34;100.00
74163;BME280;62515;52.758;5.076;2023-02-08T05:43:04;103989.41;;;-2.40;100.00
74163;BME280;62515;52.758;5.076;2023-02-08T05:45:31;103991.19;;;-2.39;100.00
74163;BME280;62515;52.758;5.076;2023-02-08T05:47:59;103985.28;;;-2.34;100.00
74163;BME280;62515;52.758;5.076;2023-02-08T05:50:26;103986.44;;;-2.24;100.00
74163;BME280;62515;52.758;5.076;2023-02-08T05:52:53;103985.72;;;-2.20;100.00
74163;BME280;62515;52.758;5.076;2023-02-08T05:55:19;103984.31;;;-2.09;100.00
74163;BME280;62515;52.758;5.076;2023-02-08T05:57:46;103982.72;;;-2.04;100.00
74163;BME280;62515;52.758;5.076;2023-02-08T06:00:14;103982.78;;;-2.02;100.00
74163;BME280;62515;52.758;5.076;2023-02-08T06:02:44;103974.06;;;-2.03;100.00
74163;BME280;62515;52.758;5.076;2023-02-08T06:05:12;103970.63;;;-2.02;100.00
74163;BME280;62515;52.758;5.076;2023-02-08T06:07:39;103970.41;;;-2.08;100.00
74163;BME280;62515;52.758;5.076;2023-02-08T06:10:06;103967.72;;;-2.11;100.00
74163;BME280;62515;52.758;5.076;2023-02-08T06:12:33;103970.03;;;-2.22;100.00
74163;BME280;62515;52.758;5.076;2023-02-08T06:15:00;103969.63;;;-2.34;100.00
74163;BME280;62515;52.758;5.076;2023-02-08T06:17:27;103971.56;;;-2.28;100.00
74163;BME280;62515;52.758;5.076;2023-02-08T06:19:53;103980.22;;;-2.29;100.00
74163;BME280;62515;52.758;5.076;2023-02-08T06:25:35;103971.19;;;-2.12;100.00
74163;BME280;62515;52.758;5.076;2023-02-08T06:28:04;103966.44;;;-2.25;100.00
74163;BME280;62515;52.758;5.076;2023-02-08T06:30:31;103966.53;;;-2.22;100.00
74163;BME280;62515;52.758;5.076;2023-02-08T06:32:58;103969.88;;;-2.26;100.00
74163;BME280;62515;52.758;5.076;2023-02-08T06:35:25;103968.31;;;-2.21;100.00
74163;BME280;62515;52.758;5.076;2023-02-08T06:37:52;103960.56;;;-2.18;100.00
74163;BME280;62515;52.758;5.076;2023-02-08T06:40:19;103972.56;;;-2.23;100.00
74163;BME280;62515;52.758;5.076;2023-02-08T06:42:48;103957.97;;;-2.18;100.00
74163;BME280;62515;52.758;5.076;2023-02-08T06:45:15;103960.09;;;-2.05;100.00
74163;BME280;62515;52.758;5.076;2023-02-08T06:47:42;103962.13;;;-1.95;100.00
74163;BME280;62515;52.758;5.076;2023-02-08T06:50:09;103969.13;;;-1.94;100.00
74163;BME280;62515;52.758;5.076;2023-02-08T06:52:36;103968.94;;;-2.00;100.00
74163;BME280;62515;52.758;5.076;2023-02-08T06:55:04;103966.91;;;-2.10;100.00
74163;BME280;62515;52.758;5.076;2023-02-08T06:57:31;103959.16;;;-2.07;100.00
74163;BME280;62515;52.758;5.076;2023-02-08T06:59:59;103969.41;;;-2.13;100.00
74163;BME280;62515;52.758;5.076;2023-02-08T07:02:26;103972.81;;;-2.16;100.00
74163;BME280;62515;52.758;5.076;2023-02-08T07:04:53;103979.13;;;-2.09;100.00
74163;BME280;62515;52.758;5.076;2023-02-08T07:07:20;103977.50;;;-2.04;100.00
74163;BME280;62515;52.758;5.076;2023-02-08T07:09:47;103975.09;;;-1.98;100.00
74163;BME280;62515;52.758;5.076;2023-02-08T07:12:14;103982.00;;;-2.00;100.00
74163;BME280;62515;52.758;5.076;2023-02-08T07:14:42;103983.78;;;-1.99;100.00
74163;BME280;62515;52.758;5.076;2023-02-08T07:17:11;103976.88;;;-1.97;100.00
74163;BME280;62515;52.758;5.076;2023-02-08T07:19:38;103969.69;;;-2.04;100.00
74163;BME280;62515;52.758;5.076;2023-02-08T07:22:06;103964.00;;;-1.91;100.00
74163;BME280;62515;52.758;5.076;2023-02-08T07:24:33;103959.97;;;-1.80;100.00
74163;BME280;62515;52.758;5.076;2023-02-08T07:27:00;103962.69;;;-1.77;100.00
74163;BME280;62515;52.758;5.076;2023-02-08T07:29:28;103958.53;;;-1.69;100.00
74163;BME280;62515;52.758;5.076;2023-02-08T07:31:55;103950.63;;;-1.72;100.00
74163;BME280;62515;52.758;5.076;2023-02-08T07:34:23;103961.06;;;-1.72;100.00
74163;BME280;62515;52.758;5.076;2023-02-08T07:36:50;103955.84;;;-1.72;100.00
74163;BME280;62515;52.758;5.076;2023-02-08T07:39:17;103947.53;;;-1.59;100.00
74163;BME280;62515;52.758;5.076;2023-02-08T07:41:44;103952.75;;;-1.59;100.00
74163;BME280;62515;52.758;5.076;2023-02-08T07:44:10;103944.09;;;-1.56;100.00
74163;BME280;62515;52.758;5.076;2023-02-08T07:46:38;103952.25;;;-1.45;100.00
74163;BME280;62515;52.758;5.076;2023-02-08T07:49:05;103942.97;;;-1.34;100.00
74163;BME280;62515;52.758;5.076;2023-02-08T07:51:33;103942.41;;;-1.23;100.00
74163;BME280;62515;52.758;5.076;2023-02-08T07:54:00;103939.03;;;-1.19;100.00
74163;BME280;62515;52.758;5.076;2023-02-08T07:56:27;103935.78;;;-1.10;100.00
74163;BME280;62515;52.758;5.076;2023-02-08T07:58:53;103936.78;;;-1.05;100.00
74163;BME280;62515;52.758;5.076;2023-02-08T08:01:20;103937.69;;;-1.04;100.00
74163;BME280;62515;52.758;5.076;2023-02-08T08:03:49;103940.44;;;-0.98;100.00
74163;BME280;62515;52.758;5.076;2023-02-08T08:06:16;103925.66;;;-0.98;100.00
74163;BME280;62515;52.758;5.076;2023-02-08T08:08:44;103924.03;;;-0.93;100.00
74163;BME280;62515;52.758;5.076;2023-02-08T08:11:11;103921.41;;;-0.93;100.00
74163;BME280;62515;52.758;5.076;2023-02-08T08:13:38;103925.19;;;-0.82;100.00
74163;BME280;62515;52.758;5.076;2023-02-08T08:16:05;103928.84;;;-0.74;100.00
74163;BME280;62515;52.758;5.076;2023-02-08T08:18:32;103928.09;;;-0.68;100.00
74163;BME280;62515;52.758;5.076;2023-02-08T08:20:59;103925.59;;;-0.64;100.00
74163;BME280;62515;52.758;5.076;2023-02-08T08:23:26;103920.44;;;-0.61;100.00
74163;BME280;62515;52.758;5.076;2023-02-08T08:25:54;103916.25;;;-0.54;100.00
74163;BME280;62515;52.758;5.076;2023-02-08T08:28:21;103918.94;;;-0.51;100.00
74163;BME280;62515;52.758;5.076;2023-02-08T08:30:48;103921.63;;;-0.48;100.00
74163;BME280;62515;52.758;5.076;2023-02-08T08:33:14;103925.25;;;-0.43;100.00
74163;BME280;62515;52.758;5.076;2023-02-08T08:35:41;103915.94;;;-0.30;100.00
74163;BME280;62515;52.758;5.076;2023-02-08T08:38:08;103916.16;;;-0.20;100.00
74163;BME280;62515;52.758;5.076;2023-02-08T08:40:35;103916.44;;;-0.06;100.00
74163;BME280;62515;52.758;5.076;2023-02-08T08:43:03;103916.50;;;-0.03;100.00
74163;BME280;62515;52.758;5.076;2023-02-08T08:45:30;103926.19;;;0.01;100.00
74163;BME280;62515;52.758;5.076;2023-02-08T08:47:56;103928.88;;;0.03;100.00
74163;BME280;62515;52.758;5.076;2023-02-08T08:50:23;103930.66;;;0.07;100.00
74163;BME280;62515;52.758;5.076;2023-02-08T08:52:50;103927.31;;;0.12;100.00
74163;BME280;62515;52.758;5.076;2023-02-08T08:55:16;103925.88;;;0.28;100.00
74163;BME280;62515;52.758;5.076;2023-02-08T08:57:43;103932.25;;;0.39;100.00
74163;BME280;62515;52.758;5.076;2023-02-08T09:00:13;103926.28;;;0.47;100.00
74163;BME280;62515;52.758;5.076;2023-02-08T09:02:39;103921.19;;;0.55;100.00
74163;BME280;62515;52.758;5.076;2023-02-08T09:05:06;103919.56;;;0.62;100.00
74163;BME280;62515;52.758;5.076;2023-02-08T09:07:33;103933.75;;;0.73;100.00
74163;BME280;62515;52.758;5.076;2023-02-08T09:10:00;103933.91;;;0.82;100.00
74163;BME280;62515;52.758;5.076;2023-02-08T09:12:27;103943.06;;;1.05;100.00
74163;BME280;62515;52.758;5.076;2023-02-08T09:14:54;103936.50;;;1.30;100.00
74163;BME280;62515;52.758;5.076;2023-02-08T09:17:22;103929.56;;;1.33;100.00
74163;BME280;62515;52.758;5.076;2023-02-08T09:19:48;103931.31;;;1.34;100.00
74163;BME280;62515;52.758;5.076;2023-02-08T09:22:15;103933.13;;;1.40;100.00
74163;BME280;62515;52.758;5.076;2023-02-08T09:24:42;103927.88;;;1.38;100.00
74163;BME280;62515;52.758;5.076;2023-02-08T09:27:08;103933.13;;;1.38;100.00
74163;BME280;62515;52.758;5.076;2023-02-08T09:29:35;103930.59;;;1.43;100.00
74163;BME280;62515;52.758;5.076;2023-02-08T09:32:02;103929.97;;;1.61;100.00
74163;BME280;62515;52.758;5.076;2023-02-08T09:34:30;103923.25;;;1.81;100.00
74163;BME280;62515;52.758;5.076;2023-02-08T09:36:57;103926.75;;;1.81;100.00
74163;BME280;62515;52.758;5.076;2023-02-08T09:39:24;103926.03;;;1.91;100.00
74163;BME280;62515;52.758;5.076;2023-02-08T09:42:20;103941.28;;;2.21;100.00
74163;BME280;62515;52.758;5.076;2023-02-08T09:45:04;103950.25;;;2.38;100.00
74163;BME280;62515;52.758;5.076;2023-02-08T09:47:34;103946.00;;;2.51;100.00
74163;BME280;62515;52.758;5.076;2023-02-08T09:50:08;103949.84;;;2.80;100.00
74163;BME280;62515;52.758;5.076;2023-02-08T09:52:41;103949.34;;;3.22;100.00
74163;BME280;62515;52.758;5.076;2023-02-08T09:55:19;103939.75;;;3.29;100.00
74163;BME280;62515;52.758;5.076;2023-02-08T09:57:47;103932.00;;;3.51;100.00
74163;BME280;62515;52.758;5.076;2023-02-08T10:00:20;103927.81;;;3.81;100.00
74163;BME280;62515;52.758;5.076;2023-02-08T10:02:52;103935.09;;;4.29;100.00
74163;BME280;62515;52.758;5.076;2023-02-08T10:05:22;103934.31;;;4.78;100.00
74163;BME280;62515;52.758;5.076;2023-02-08T10:07:50;103937.00;;;5.36;100.00
74163;BME280;62515;52.758;5.076;2023-02-08T10:10:23;103926.38;;;5.76;95.41
74163;BME280;62515;52.758;5.076;2023-02-08T10:13:00;103931.59;;;6.05;90.50
74163;BME280;62515;52.758;5.076;2023-02-08T10:15:37;103933.47;;;5.55;91.04
74163;BME280;62515;52.758;5.076;2023-02-08T10:18:30;103936.13;;;5.29;90.11
74163;BME280;62515;52.758;5.076;2023-02-08T10:21:21;103930.84;;;5.43;88.03
74163;BME280;62515;52.758;5.076;2023-02-08T10:24:11;103926.44;;;5.48;85.08
74163;BME280;62515;52.758;5.076;2023-02-08T10:26:44;103918.53;;;5.36;84.62
74163;BME280;62515;52.758;5.076;2023-02-08T10:29:21;103909.72;;;5.26;85.95
74163;BME280;62515;52.758;5.076;2023-02-08T10:32:05;103907.94;;;5.46;84.97
74163;BME280;62515;52.758;5.076;2023-02-08T10:34:42;103894.69;;;5.64;83.67
74163;BME280;62515;52.758;5.076;2023-02-08T10:37:16;103895.56;;;5.78;83.71
74163;BME280;62515;52.758;5.076;2023-02-08T10:39:44;103900.00;;;5.43;83.76
74163;BME280;62515;52.758;5.076;2023-02-08T10:42:13;103898.25;;;5.54;83.52
74163;BME280;62515;52.758;5.076;2023-02-08T10:44:50;103903.53;;;5.54;81.89
74163;BME280;62515;52.758;5.076;2023-02-08T10:47:31;103893.81;;;5.71;85.14
74163;BME280;62515;52.758;5.076;2023-02-08T10:50:03;103886.34;;;6.63;81.33
74163;BME280;62515;52.758;5.076;2023-02-08T10:52:34;103885.63;;;6.32;78.72
74163;BME280;62515;52.758;5.076;2023-02-08T10:55:01;103882.31;;;5.91;79.67
74163;BME280;62515;52.758;5.076;2023-02-08T10:57:31;103879.69;;;5.88;83.15
74163;BME280;62515;52.758;5.076;2023-02-08T11:00:02;103865.47;;;6.08;79.63
74163;BME280;62515;52.758;5.076;2023-02-08T11:02:32;103870.81;;;6.04;78.99
74163;BME280;62515;52.758;5.076;2023-02-08T11:05:00;103880.31;;;6.35;79.21
74163;BME280;62515;52.758;5.076;2023-02-08T11:07:27;103863.75;;;6.03;78.62
74163;BME280;62515;52.758;5.076;2023-02-08T11:10:13;103869.91;;;6.02;79.41
74163;BME280;62515;52.758;5.076;2023-02-08T11:12:40;103855.97;;;5.57;78.38
74163;BME280;62515;52.758;5.076;2023-02-08T11:15:20;103854.06;;;6.08;81.65
74163;BME280;62515;52.758;5.076;2023-02-08T11:17:52;103846.91;;;6.26;76.90
74163;BME280;62515;52.758;5.076;2023-02-08T11:20:23;103849.59;;;6.11;79.97
74163;BME280;62515;52.758;5.076;2023-02-08T11:22:51;103840.69;;;6.30;79.58
74163;BME280;62515;52.758;5.076;2023-02-08T11:25:33;103850.31;;;6.42;75.93
74163;BME280;62515;52.758;5.076;2023-02-08T11:28:02;103841.34;;;6.64;76.04
74163;BME280;62515;52.758;5.076;2023-02-08T11:30:29;103848.34;;;6.70;77.48
74163;BME280;62515;52.758;5.076;2023-02-08T11:33:15;103847.56;;;6.57;74.25
74163;BME280;62515;52.758;5.076;2023-02-08T11:35:52;103851.38;;;6.14;73.59
74163;BME280;62515;52.758;5.076;2023-02-08T11:38:20;103836.41;;;6.05;76.46
74163;BME280;62515;52.758;5.076;2023-02-08T11:40:49;103832.00;;;6.06;77.22
74163;BME280;62515;52.758;5.076;2023-02-08T11:43:20;103840.53;;;6.55;76.51
74163;BME280;62515;52.758;5.076;2023-02-08T11:45:48;103836.28;;;6.28;75.65
74163;BME280;62515;52.758;5.076;2023-02-08T11:48:21;103830.34;;;5.90;75.03
74163;BME280;62515;52.758;5.076;2023-02-08T11:50:53;103831.22;;;5.90;75.94
74163;BME280;62515;52.758;5.076;2023-02-08T11:53:25;103822.31;;;6.08;76.74
74163;BME280;62515;52.758;5.076;2023-02-08T11:56:06;103823.16;;;6.14;76.85
74163;BME280;62515;52.758;5.076;2023-02-08T11:58:40;103818.41;;;6.60;75.53
74163;BME280;62515;52.758;5.076;2023-02-08T12:01:17;103814.97;;;6.51;73.15
74163;BME280;62515;52.758;5.076;2023-02-08T12:03:44;103820.34;;;6.39;75.46
74163;BME280;62515;52.758;5.076;2023-02-08T12:06:24;103820.47;;;6.19;74.32
74163;BME280;62515;52.758;5.076;2023-02-08T12:09:02;103806.47;;;6.08;75.45
74163;BME280;62515;52.758;5.076;2023-02-08T12:11:38;103804.66;;;6.14;71.93
74163;BME280;62515;52.758;5.076;2023-02-08T12:14:35;103797.84;;;5.60;76.20
74163;BME280;62515;52.758;5.076;2023-02-08T12:17:37;103800.59;;;5.25;77.68
74163;BME280;62515;52.758;5.076;2023-02-08T12:20:28;103802.41;;;4.83;82.86
74163;BME280;62515;52.758;5.076;2023-02-08T12:23:12;103794.47;;;4.98;86.14
74163;BME280;62515;52.758;5.076;2023-02-08T12:25:43;103796.25;;;4.97;84.05
74163;BME280;62515;52.758;5.076;2023-02-08T12:28:19;103789.22;;;4.73;85.79
74163;BME280;62515;52.758;5.076;2023-02-08T12:30:52;103793.63;;;4.82;81.90
74163;BME280;62515;52.758;5.076;2023-02-08T12:33:33;103798.88;;;4.99;82.02
74163;BME280;62515;52.758;5.076;2023-02-08T12:36:15;103786.56;;;4.86;82.56
74163;BME280;62515;52.758;5.076;2023-02-08T12:39:04;103786.59;;;4.87;81.71
74163;BME280;62515;52.758;5.076;2023-02-08T12:41:56;103783.03;;;4.94;80.63
74163;BME280;62515;52.758;5.076;2023-02-08T12:44:34;103784.81;;;5.00;77.97
74163;BME280;62515;52.758;5.076;2023-02-08T12:47:20;103789.19;;;5.13;80.40
74163;BME280;62515;52.758;5.076;2023-02-08T12:50:00;103787.47;;;4.94;79.11
74163;BME280;62515;52.758;5.076;2023-02-08T12:52:37;103788.34;;;4.96;80.01
74163;BME280;62515;52.758;5.076;2023-02-08T12:55:14;103790.97;;;4.97;77.86
74163;BME280;62515;52.758;5.076;2023-02-08T12:57:45;103779.53;;;5.03;78.69
74163;BME280;62515;52.758;5.076;2023-02-08T13:00:18;103773.38;;;5.04;81.69
74163;BME280;62515;52.758;5.076;2023-02-08T13:02:50;103769.84;;;5.09;80.64
74163;BME280;62515;52.758;5.076;2023-02-08T13:05:22;103769.81;;;5.08;78.03
74163;BME280;62515;52.758;5.076;2023-02-08T13:07:56;103768.09;;;4.98;82.17
74163;BME280;62515;52.758;5.076;2023-02-08T13:10:27;103771.63;;;4.94;82.79
74163;BME280;62515;52.758;5.076;2023-02-08T13:12:58;103761.06;;;4.92;81.41